createdAt,value
2023-02-12T00:03:40.913Z,38.92901
2023-02-12T00:08:41.858Z,38.98739
2023-02-12T00:13:42.751Z,39.12712
2023-02-12T00:18:43.664Z,38.98732
2023-02-12T00:23:44.689Z,39.01635
2023-02-12T00:28:45.605Z,38.81846
2023-02-12T00:33:46.517Z,38.83566
2023-02-12T00:38:47.405Z,38.59692
2023-02-12T00:43:48.330Z,38.70745
2023-02-12T00:48:49.211Z,38.42197
2023-02-12T00:53:50.135Z,38.58519
2023-02-12T00:58:51.080Z,38.2818
2023-02-12T01:03:52.067Z,38.23515
2023-02-12T01:08:52.998Z,38.25826
2023-02-12T01:13:53.906Z,38.04277
2023-02-12T01:18:56.102Z,38.02574
2023-02-12T01:23:57.242Z,38.06664
2023-02-12T01:28:58.185Z,38.10746
2023-02-12T01:33:59.107Z,38.23017
2023-02-12T01:39:00.129Z,38.13717
2023-02-12T01:44:01.147Z,38.07913
2023-02-12T01:49:02.107Z,38.18396
2023-02-12T01:54:03.084Z,38.20737
2023-02-12T01:59:04.079Z,38.28299
2023-02-12T02:04:05.076Z,38.219
2023-02-12T02:09:06.001Z,38.13749
2023-02-12T02:14:06.899Z,38.16692
2023-02-12T02:19:07.789Z,38.20783
2023-02-12T02:24:08.697Z,38.23094
2023-02-12T02:29:09.591Z,38.1668
2023-02-12T02:34:10.535Z,38.16679
2023-02-12T02:39:11.472Z,38.1843
2023-02-12T02:44:12.540Z,38.11419
2023-02-12T02:49:13.456Z,38.03292
2023-02-12T02:54:14.428Z,38.06758
2023-02-12T02:59:15.537Z,37.99731
2023-02-12T03:04:16.503Z,37.99768
2023-02-12T03:09:17.434Z,38.00328
2023-02-12T03:14:18.388Z,37.80513
2023-02-12T03:19:19.292Z,37.85743
2023-02-12T03:24:20.330Z,37.73581
2023-02-12T03:29:21.272Z,37.92795
2023-02-12T03:34:22.199Z,37.88697
2023-02-12T03:39:23.110Z,37.77605
2023-02-12T03:44:24.182Z,37.92748
2023-02-12T03:49:25.145Z,37.74651
2023-02-12T03:54:26.078Z,37.6536
2023-02-12T03:59:27.031Z,37.79406
2023-02-12T04:04:28.225Z,37.8
2023-02-12T04:09:29.418Z,37.74786
2023-02-12T04:14:30.648Z,37.71283
2023-02-12T04:19:31.858Z,37.56729
2023-02-12T04:24:32.756Z,37.6494
2023-02-12T04:29:33.673Z,37.78917
2023-02-12T04:34:34.569Z,37.67249
2023-02-12T04:39:35.444Z,37.64384
2023-02-12T04:44:36.350Z,37.65573
2023-02-12T04:49:37.229Z,37.5859
2023-02-12T04:54:38.271Z,37.56252
2023-02-12T04:59:39.295Z,37.5455
2023-02-12T05:04:40.236Z,37.45881
2023-02-12T05:09:41.198Z,37.4766
2023-02-12T05:14:42.145Z,37.4365
2023-02-12T05:19:43.056Z,37.3619
2023-02-12T05:24:43.969Z,37.45548
2023-02-12T05:29:44.859Z,37.72893
2023-02-12T05:34:45.813Z,37.87422
2023-02-12T05:39:46.831Z,37.89088
2023-02-12T05:44:47.743Z,37.91372
2023-02-12T05:49:48.678Z,37.75093
2023-02-12T05:54:49.582Z,37.96589
2023-02-12T05:59:50.512Z,37.98346
2023-02-12T06:04:51.436Z,38.18109
2023-02-12T06:09:52.460Z,37.94859
2023-02-12T06:14:53.384Z,38.07624
2023-02-12T06:19:54.307Z,38.012
2023-02-12T06:24:55.237Z,38.03524
2023-02-12T06:29:56.130Z,38.04683
2023-02-12T06:34:57.042Z,37.97675
2023-02-12T06:39:57.936Z,37.97676
2023-02-12T06:44:58.859Z,37.97081
2023-02-12T06:49:59.755Z,37.80769
2023-02-12T06:55:00.664Z,37.81938
2023-02-12T07:00:01.671Z,37.91298
2023-02-12T07:05:02.725Z,38.1049
2023-02-12T07:10:03.660Z,38.19814
2023-02-12T07:15:04.584Z,38.12813
2023-02-12T07:20:05.543Z,38.03444
2023-02-12T07:25:06.468Z,38.05216
2023-02-12T07:30:07.385Z,37.98801
2023-02-12T07:35:08.329Z,37.91783
2023-02-12T07:40:09.250Z,37.81819
2023-02-12T07:45:10.205Z,37.63779
2023-02-12T07:50:11.145Z,37.53248
2023-02-12T07:55:12.081Z,37.54381
2023-02-12T08:00:13.001Z,37.4736
2023-02-12T08:05:13.914Z,37.30409
2023-02-12T08:10:14.837Z,37.19935
2023-02-12T08:15:15.913Z,37.21085
2023-02-12T08:20:16.897Z,37.22822
2023-02-12T08:25:17.861Z,37.01247
2023-02-12T08:30:18.825Z,37.09978
2023-02-12T08:35:19.729Z,37.07048
2023-02-12T08:40:20.671Z,36.98318
2023-02-12T08:45:21.625Z,37.0759
2023-02-12T08:50:22.601Z,36.89398
2023-02-12T08:55:23.536Z,36.7528
2023-02-12T09:00:24.462Z,36.47267
2023-02-12T09:05:25.423Z,36.51436
2023-02-12T09:10:26.345Z,36.59591
2023-02-12T09:15:27.346Z,36.39071
2023-02-12T09:20:28.463Z,36.28463
2023-02-12T09:25:29.757Z,36.30238
2023-02-12T09:30:31.103Z,36.29186
2023-02-12T09:35:32.087Z,36.35671
2023-02-12T09:40:33.021Z,36.35087
2023-02-12T09:45:33.924Z,36.26211
2023-02-12T09:50:34.852Z,36.21402
2023-02-12T09:55:35.809Z,35.997
2023-02-12T10:00:36.717Z,35.89048
2023-02-12T10:05:37.750Z,35.59505
2023-02-12T10:10:38.663Z,35.45405
2023-02-12T10:15:39.908Z,35.37192
2023-02-12T10:20:41.674Z,35.41259
2023-02-12T10:25:42.805Z,35.41864
2023-02-12T10:30:43.797Z,35.35335
2023-02-12T10:35:44.714Z,35.31318
2023-02-12T10:40:45.639Z,35.57764
2023-02-12T10:45:46.613Z,35.29435
2023-02-12T10:50:47.597Z,35.2348
2023-02-12T10:55:48.528Z,35.22868
2023-02-12T11:00:49.508Z,35.24504
2023-02-12T11:05:50.438Z,35.43449
2023-02-12T11:10:51.334Z,35.93912
2023-02-12T11:15:52.309Z,36.08465
2023-02-12T11:20:53.360Z,36.1903
2023-02-12T11:25:54.672Z,36.51912
2023-02-12T11:30:55.899Z,36.6369
2023-02-12T11:35:56.959Z,36.98073
2023-02-12T11:40:58.178Z,37.06733
2023-02-12T11:45:59.378Z,37.05588
2023-02-12T11:51:00.287Z,37.07971
2023-02-12T11:56:01.528Z,37.07463
2023-02-12T12:01:02.812Z,37.17918
2023-02-12T12:06:03.758Z,37.03858
2023-02-12T12:11:04.678Z,37.06865
2023-02-12T12:16:05.653Z,37.00525
2023-02-12T12:21:06.748Z,37.12687
2023-02-12T12:26:07.694Z,36.20804
2023-02-12T12:31:08.719Z,34.27755
2023-02-12T12:36:09.764Z,34.58073
2023-02-12T12:41:10.668Z,34.71114
2023-02-12T12:46:11.619Z,34.53224
2023-02-12T12:51:12.565Z,34.66218
2023-02-12T12:56:13.471Z,34.49288
2023-02-12T13:01:14.538Z,33.63663
2023-02-12T13:06:15.483Z,33.19964
2023-02-12T13:11:16.383Z,32.04805
2023-02-12T13:16:17.699Z,31.39132
2023-02-12T13:21:18.686Z,30.97622
2023-02-12T13:26:19.682Z,31.80581
2023-02-12T13:31:32.550Z,32.308
2023-02-12T13:36:34.279Z,32.73829
2023-02-12T13:41:35.208Z,32.99953
2023-02-12T13:46:36.168Z,33.02952
2023-02-12T13:51:37.116Z,32.71675
2023-02-12T13:56:38.070Z,32.48721
2023-02-12T14:01:39.092Z,32.15761
2023-02-12T14:06:40.030Z,31.81715
2023-02-12T14:11:40.951Z,31.63421
2023-02-12T14:16:41.989Z,31.35642
2023-02-12T14:21:42.911Z,31.244
2023-02-12T14:26:43.854Z,31.51676
2023-02-12T14:31:44.922Z,31.34876
2023-02-12T14:36:45.944Z,31.38131
2023-02-12T14:41:46.960Z,31.52127
2023-02-12T14:46:47.860Z,31.73427
2023-02-12T14:51:48.910Z,31.83616
2023-02-12T14:56:49.842Z,31.95494
2023-02-12T15:01:50.808Z,32.28567
2023-02-12T15:06:51.764Z,32.33309
2023-02-12T15:11:52.723Z,32.54065
2023-02-12T15:16:53.648Z,32.65731
2023-02-12T15:21:54.692Z,32.69342
2023-02-12T15:26:55.616Z,32.70465
2023-02-12T15:31:56.698Z,32.73548
2023-02-12T15:36:57.772Z,32.98323
2023-02-12T15:41:58.710Z,32.88985
2023-02-12T15:46:59.638Z,33.14327
2023-02-12T15:52:00.557Z,33.12076
2023-02-12T15:57:01.537Z,33.3276
2023-02-12T16:02:02.587Z,33.3037
2023-02-12T16:07:03.569Z,33.43283
2023-02-12T16:12:04.482Z,33.38554
2023-02-12T16:17:05.463Z,33.40241
2023-02-12T16:22:06.415Z,33.55169
2023-02-12T16:27:07.420Z,33.65359
2023-02-12T16:32:08.403Z,33.71853
2023-02-12T16:37:09.333Z,33.81452
2023-02-12T16:42:10.238Z,34.10941
2023-02-12T16:47:11.216Z,34.19739
2023-02-12T16:52:12.116Z,34.20456
2023-02-12T16:57:13.032Z,34.38196
2023-02-12T17:02:13.930Z,34.59387
2023-02-12T17:07:14.879Z,34.7234
2023-02-12T17:12:15.801Z,34.81195
2023-02-12T17:17:16.747Z,34.95179
2023-02-12T17:22:17.712Z,35.00442
2023-02-12T17:27:18.612Z,35.14487
2023-02-12T17:32:19.623Z,35.10971
2023-02-12T17:37:20.601Z,35.26795
2023-02-12T17:42:21.565Z,35.40808
2023-02-12T17:47:22.536Z,35.38381
2023-02-12T17:52:23.415Z,35.44249
2023-02-12T17:57:24.458Z,35.58293
2023-02-12T18:02:25.350Z,35.5174
2023-02-12T18:07:26.247Z,35.49977
2023-02-12T18:12:27.137Z,35.5827
2023-02-12T18:17:28.097Z,35.8409
2023-02-12T18:22:29.501Z,36.29686
2023-02-12T18:27:31.145Z,36.53017
2023-02-12T18:32:32.080Z,36.77502
2023-02-12T18:37:32.999Z,36.93229
2023-02-12T18:42:34.008Z,37.0953
2023-02-12T18:47:34.930Z,37.14101
2023-02-12T18:52:35.808Z,37.08217
2023-02-12T18:57:36.729Z,37.01793
2023-02-12T19:02:37.643Z,37.17615
2023-02-12T19:07:38.595Z,37.09467
2023-02-12T19:12:39.723Z,37.25848
2023-02-12T19:17:40.684Z,37.39303
2023-02-12T19:22:41.726Z,37.38729
2023-02-12T19:27:43.620Z,37.4865
2023-02-12T19:32:44.794Z,37.55104
2023-02-12T19:37:45.748Z,37.70313
2023-02-12T19:42:47.143Z,37.70287
2023-02-12T19:47:48.648Z,37.85502
2023-02-12T19:52:49.838Z,37.95449
2023-02-12T19:57:51.022Z,37.92473
2023-02-12T20:02:52.231Z,37.87818
2023-02-12T20:07:53.216Z,38.07636
2023-02-12T20:12:54.210Z,38.12288
2023-02-12T20:17:55.417Z,38.25701
2023-02-12T20:22:56.414Z,38.27457
2023-02-12T20:27:57.849Z,38.35636
2023-02-12T20:32:58.827Z,38.5429
2023-02-12T20:37:59.873Z,38.51354
2023-02-12T20:43:00.802Z,38.75261
2023-02-12T20:48:01.938Z,38.62417
2023-02-12T20:53:02.854Z,38.58917
2023-02-12T20:58:03.806Z,38.72936
2023-02-12T21:03:04.775Z,38.72897
2023-02-12T21:08:05.738Z,38.72312
2023-02-12T21:13:06.707Z,38.7582
2023-02-12T21:18:07.689Z,38.93904
2023-02-12T21:23:08.631Z,39.11399
2023-02-12T21:28:09.548Z,39.10243
2023-02-12T21:33:10.502Z,39.28306
2023-02-12T21:38:11.467Z,39.25998
2023-02-12T21:43:12.425Z,39.4348
2023-02-12T21:48:13.422Z,39.62107
2023-02-12T21:53:14.360Z,39.65011
2023-02-12T21:58:15.246Z,39.60338
2023-02-12T22:03:16.167Z,39.59747
2023-02-12T22:08:17.092Z,39.58583
2023-02-12T22:13:18.002Z,39.55679
2023-02-12T22:18:18.942Z,39.67325
2023-02-12T22:23:19.870Z,39.69091
2023-02-12T22:28:20.797Z,39.90639
2023-02-12T22:33:21.769Z,40.16259
2023-02-12T22:38:22.689Z,40.32556
2023-02-12T22:43:23.601Z,40.36049
2023-02-12T22:48:24.506Z,40.31974
2023-02-12T22:53:25.427Z,40.34884
2023-02-12T22:58:26.329Z,40.56416
2023-02-12T23:03:27.216Z,40.55842
2023-02-12T23:08:28.126Z,40.61075
2023-02-12T23:13:30.294Z,40.7853
2023-02-12T23:18:31.659Z,40.91339
2023-02-12T23:23:32.656Z,40.84355
2023-02-12T23:28:33.736Z,40.77386
2023-02-12T23:33:34.674Z,40.76794
2023-02-12T23:38:35.599Z,40.69236
2023-02-12T23:43:36.494Z,40.76797
2023-02-12T23:48:37.414Z,40.74473
2023-02-12T23:53:38.316Z,40.83788
2023-02-12T23:58:39.248Z,40.68084
